MOL Presence — 9V8990 — position and weather

sailwx.info

Track history (hours):
 
Tides and Currents Weather Stations Pressure Air Temp Water Temp Dewpoint Dewpoint Depression Visibility Wind Speed Wind Dir Waves Ship Positions

MOL Presence

Last reported at 2017-Dec-04 10:30 UTC. Time now 2017-Dec-15 10:25 UTC.
Position N 38°18' W 009°58'.
Warning: this ship's position is 10 days out of date.

Length 293 m; draft 12.3 m.

Type: Ship. MMSI: 564803000.

Date/timePositionNaut miles runAvg speedWind from/ knotsBaromVisibWave heightAir tempDewpointWater temp
2017-Dec-04 10:30N 38°18' W 009°58'816.8
2017-Dec-04 10:00N 38°26' W 010°01'816.9
2017-Dec-04 09:31N 38°34' W 010°04'816.6
2017-Dec-04 09:01N 38°43' W 010°06'917.2
2017-Dec-04 08:31N 38°51' W 010°07'917.0
2017-Dec-04 08:01N 38°60' W 010°09'817.0
2017-Dec-04 07:31N 39°08' W 010°07'917.5
2017-Dec-04 07:00N 39°17' W 010°07'917.1
2017-Dec-04 06:31N 39°25' W 010°06'47318.9
2017-Dec-03 05:28N 47°02' W 007°18'1522.0
2017-Dec-03 04:48N 47°15' W 007°07'722.2
2017-Dec-03 04:28N 47°22' W 007°02'1221.8
2017-Dec-03 03:56N 47°32' W 006°54'3221.2
2017-Dec-03 02:25N 47°60' W 006°31'8920.6
2017-Dec-02 22:07N 49°11' W 005°12'519.3
2017-Dec-02 21:51N 49°15' W 005°06'4822.9
2017-Dec-02 19:46N 49°46' W 004°10'1122.1
2017-Dec-02 19:16N 49°53' W 003°57'521.5
2017-Dec-02 19:00N 49°57' W 003°50'1020.4
2017-Dec-02 18:30N 50°03' W 003°38'918.8
2017-Dec-02 18:01N 50°09' W 003°27'918.4
2017-Dec-02 17:31N 50°18' W 003°25'713.2
2017-Dec-02 17:01N 50°25' W 003°26'5 9.3
2017-Dec-02 16:31N 50°26' W 003°19'917.7
2017-Dec-02 16:01N 50°25' W 003°05'1019.6
2017-Dec-02 15:31N 50°26' W 002°49'1220.5
2017-Dec-02 14:57N 50°26' W 002°31'921.1
2017-Dec-02 14:30N 50°26' W 002°17'1122.0
2017-Dec-02 14:01N 50°26' W 001°60'1223.4
2017-Dec-02 13:31N 50°26' W 001°41'1223.9
2017-Dec-02 13:00N 50°25' W 001°23'1223.7
2017-Dec-02 12:30N 50°28' W 001°04'1223.3
2017-Dec-02 11:58N 50°29' W 000°44'1123.0
2017-Dec-02 11:30N 50°29' W 000°28'1122.4
2017-Dec-02 11:00N 50°31' W 000°11'1122.8
2017-Dec-02 10:30N 50°34' E 000°07'1122.3
2017-Dec-02 10:00N 50°37' E 000°23'1121.5
2017-Dec-02 09:30N 50°40' E 000°40'1121.5
2017-Dec-02 09:00N 50°46' E 000°54'1121.4
2017-Dec-02 08:30N 50°51' E 001°09'1122.0
2017-Dec-02 08:00N 50°58' E 001°23'1223.8
2017-Dec-02 07:31N 51°06' E 001°36'1224.7
2017-Dec-02 07:01N 51°16' E 001°47'1224.5
2017-Dec-02 06:31N 51°26' E 001°59'1223.9
2017-Dec-02 06:00N 51°35' E 002°12'1223.9
2017-Dec-02 05:30N 51°44' E 002°25'3421.8
2017-Dec-02 03:56N 52°04' E 003°11'922.2
2017-Dec-02 03:30N 52°04' E 003°26'1020.9
2017-Dec-02 03:01N 52°03' E 003°43'713.2
2017-Dec-02 02:30N 52°02' E 003°53'510.0
2017-Dec-02 02:01N 52°00' E 004°01'4 7.2
2017-Dec-02 01:30N 51°58' E 004°05'1 2.0
2017-Dec-02 00:59N 51°58' E 004°03'0 0.0
2017-Dec-02 00:29N 51°58' E 004°03'0 0.0
2017-Dec-02 00:00N 51°58' E 004°03'0 0.0
2017-Dec-01 23:30N 51°58' E 004°03'0 0.0
2017-Dec-01 23:00N 51°58' E 004°03'0 0.0
2017-Dec-01 22:30N 51°58' E 004°03'0 0.0
2017-Dec-01 22:00N 51°58' E 004°03'0 0.0
2017-Dec-01 21:30N 51°58' E 004°03'0 0.0
2017-Dec-01 21:00N 51°58' E 004°03'0 0.0
2017-Dec-01 20:30N 51°58' E 004°03'0 0.0
2017-Dec-01 20:00N 51°58' E 004°03'0 0.0
2017-Dec-01 19:30N 51°58' E 004°03'0 0.0
2017-Dec-01 19:00N 51°58' E 004°03'0 0.0
2017-Dec-01 18:30N 51°58' E 004°03'0 0.0
2017-Dec-01 18:00N 51°58' E 004°03'0 0.0
2017-Dec-01 17:30N 51°58' E 004°03'0 0.0
2017-Dec-01 17:00N 51°58' E 004°03'0 0.0
2017-Dec-01 16:30N 51°58' E 004°03'0 0.0
2017-Dec-01 16:00N 51°58' E 004°03'0 0.0
2017-Dec-01 15:30N 51°58' E 004°03'0 0.0
2017-Dec-01 15:00N 51°58' E 004°03'0 0.0
2017-Dec-01 14:30N 51°58' E 004°03'0 0.0
2017-Dec-01 14:00N 51°58' E 004°03'0 0.0
2017-Dec-01 13:30N 51°58' E 004°03'0 0.0
2017-Dec-01 13:00N 51°58' E 004°03'0 0.0
2017-Dec-01 12:30N 51°58' E 004°03'0 0.0
2017-Dec-01 12:00N 51°58' E 004°03'0 0.0
2017-Dec-01 11:30N 51°58' E 004°03'0 0.0
2017-Dec-01 11:00N 51°58' E 004°03'0 0.0
2017-Dec-01 10:27N 51°58' E 004°03'0 0.0
2017-Dec-01 10:00N 51°58' E 004°03'0 0.0
2017-Dec-01 09:30N 51°58' E 004°03'0 0.0
2017-Dec-01 09:00N 51°58' E 004°03'0 0.0
2017-Dec-01 08:30N 51°58' E 004°03'0 0.0
2017-Dec-01 08:00N 51°58' E 004°03'0 0.0
2017-Dec-01 07:30N 51°58' E 004°03'0 0.0
2017-Dec-01 07:00N 51°58' E 004°03'0 0.0
2017-Dec-01 06:30N 51°58' E 004°03'0 0.0
2017-Dec-01 06:00N 51°58' E 004°03'0 0.0
2017-Dec-01 05:30N 51°58' E 004°03'0 0.0
2017-Dec-01 05:00N 51°58' E 004°03'0 0.0
2017-Dec-01 04:30N 51°58' E 004°03'0 0.0
2017-Dec-01 04:00N 51°58' E 004°03'0 0.0
2017-Dec-01 03:30N 51°58' E 004°03'0 0.0
2017-Dec-01 03:00N 51°58' E 004°03'0 0.0
2017-Dec-01 02:30N 51°58' E 004°03'0 0.0
2017-Dec-01 02:00N 51°58' E 004°03'0 0.0
2017-Dec-01 01:30N 51°58' E 004°03'0 0.0
2017-Dec-01 01:00N 51°58' E 004°03'0 0.0
2017-Dec-01 00:30N 51°58' E 004°03'0 0.0
2017-Dec-01 00:00N 51°58' E 004°03'0 0.0
2017-Nov-30 23:30N 51°58' E 004°03'0 0.0
2017-Nov-30 23:00N 51°58' E 004°03'0 0.0
2017-Nov-30 22:30N 51°58' E 004°03'0 0.0
2017-Nov-30 22:00N 51°58' E 004°03'0 0.0
2017-Nov-30 21:30N 51°58' E 004°03'0 0.0
2017-Nov-30 21:00N 51°58' E 004°03'0 0.0
2017-Nov-30 20:30N 51°58' E 004°03'0 0.0
2017-Nov-30 20:00N 51°58' E 004°03'0 0.0
2017-Nov-30 19:30N 51°58' E 004°03'0 0.0
2017-Nov-30 19:00N 51°58' E 004°03'0 0.0
2017-Nov-30 18:30N 51°58' E 004°03'0 0.0
2017-Nov-30 18:00N 51°58' E 004°03'0 0.0
2017-Nov-30 17:30N 51°58' E 004°03'0 0.1
2017-Nov-30 17:00N 51°58' E 004°03'0 0.1
2017-Nov-30 16:30N 51°58' E 004°03'0 0.0
2017-Nov-30 16:00N 51°58' E 004°03'0 0.0
2017-Nov-30 15:30N 51°58' E 004°03'0 0.0
2017-Nov-30 15:00N 51°58' E 004°03'0 0.0
2017-Nov-30 14:30N 51°58' E 004°03'0 0.0
2017-Nov-30 14:00N 51°58' E 004°03'0 0.0
2017-Nov-30 13:30N 51°58' E 004°03'0 0.0
2017-Nov-30 13:00N 51°58' E 004°03'0 0.0
2017-Nov-30 12:30N 51°58' E 004°03'0 0.0
2017-Nov-30 12:00N 51°58' E 004°03'0 0.0
2017-Nov-30 11:30N 51°58' E 004°03'0 0.0
2017-Nov-30 11:00N 51°58' E 004°03'0 0.0
2017-Nov-30 10:30N 51°58' E 004°03'0 0.0
2017-Nov-30 10:00N 51°58' E 004°03'0 0.0
2017-Nov-30 09:30N 51°58' E 004°03'0 0.0
2017-Nov-30 09:00N 51°58' E 004°03'0 0.0
2017-Nov-30 08:30N 51°58' E 004°03'0 0.0
2017-Nov-30 08:00N 51°58' E 004°03'0 0.0
2017-Nov-30 07:30N 51°58' E 004°03'0 0.0
2017-Nov-30 07:00N 51°58' E 004°03'0 0.0
2017-Nov-30 06:30N 51°58' E 004°03'0 0.0
2017-Nov-30 06:00N 51°58' E 004°03'0 0.0
2017-Nov-30 05:30N 51°58' E 004°03'0 0.0
2017-Nov-30 05:00N 51°58' E 004°03'0 0.0
2017-Nov-30 04:30N 51°58' E 004°03'0 0.0
2017-Nov-30 04:00N 51°58' E 004°03'0 0.0
2017-Nov-30 03:30N 51°58' E 004°03'0 0.0
2017-Nov-30 03:00N 51°58' E 004°03'0 0.0
2017-Nov-30 02:30N 51°58' E 004°03'0 0.0
2017-Nov-30 02:00N 51°58' E 004°03'0 0.0
2017-Nov-30 01:30N 51°58' E 004°03'0 0.0
2017-Nov-30 01:00N 51°58' E 004°03'0 0.0
2017-Nov-30 00:30N 51°58' E 004°03'0 0.0
2017-Nov-30 00:00N 51°58' E 004°03'0 0.0
2017-Nov-29 23:30N 51°58' E 004°03'0 0.0
2017-Nov-29 23:00N 51°58' E 004°03'0 0.0
2017-Nov-29 22:30N 51°58' E 004°03'0 0.1
2017-Nov-29 22:00N 51°58' E 004°03'1 1.4
2017-Nov-29 21:30N 51°58' E 004°04'2 3.7
2017-Nov-29 21:00N 51°59' E 004°03'5 9.1
2017-Nov-29 20:30N 52°00' E 003°55'4 8.4
2017-Nov-29 20:00N 51°60' E 003°49'510.1
2017-Nov-29 19:30N 51°58' E 003°41'713.0
2017-Nov-29 19:00N 51°56' E 003°31'2 2.6
2017-Nov-29 18:11N 51°54' E 003°29'0 0.0
2017-Nov-29 15:26N 51°54' E 003°29'0 0.1
2017-Nov-29 14:56N 51°54' E 003°29'0 0.0
2017-Nov-29 14:20N 51°54' E 003°29'0 0.1
2017-Nov-29 13:50N 51°54' E 003°29'0 0.0
2017-Nov-29 13:29N 51°54' E 003°29'0 0.0
2017-Nov-29 06:49N 51°54' E 003°29'0 0.1
2017-Nov-29 06:19N 51°54' E 003°29'0 0.0
2017-Nov-29 05:52N 51°54' E 003°29'0 0.0
2017-Nov-29 04:55N 51°54' E 003°29'0 0.0
2017-Nov-29 04:16N 51°54' E 003°29'0 0.0
2017-Nov-29 03:37N 51°54' E 003°29'0 0.0
2017-Nov-29 03:10N 51°54' E 003°29'0 0.1
2017-Nov-29 02:34N 51°54' E 003°29'0 0.2
2017-Nov-29 02:28N 51°54' E 003°29'0 0.0
2017-Nov-29 01:31N 51°54' E 003°29'0 0.0
2017-Nov-29 01:25N 51°54' E 003°29'0 0.1
2017-Nov-28 23:37N 51°54' E 003°29'0 0.3
2017-Nov-28 23:25N 51°54' E 003°29'0 0.7
2017-Nov-28 23:00N 51°55' E 003°29'2 4.1
2017-Nov-28 22:30N 51°55' E 003°26'510.0
2017-Nov-28 21:59N 51°54' E 003°17'711.4
2017-Nov-28 21:22N 51°52' E 003°06'2914.3
2017-Nov-28 19:20N 51°37' E 002°26'514.0
2017-Nov-28 19:01N 51°34' E 002°21'713.8
2017-Nov-28 18:31N 51°29' E 002°14'713.4
2017-Nov-28 18:01N 51°22' E 002°10'713.2
2017-Nov-28 17:31N 51°16' E 002°06'612.9
2017-Nov-28 17:01N 51°12' E 001°59'713.3
2017-Nov-28 16:31N 51°08' E 001°50'510.5
2017-Nov-28 16:01N 51°03' E 001°46'9 9.0
2017-Nov-28 15:01N 51°03' E 002°00'713.6
2017-Nov-28 14:30N 51°03' E 002°11'612.0
2017-Nov-28 14:00N 51°04' E 002°21'1 1.3
2017-Nov-28 13:29N 51°03' E 002°20'0 0.2
2017-Nov-28 12:50N 51°03' E 002°20'0 0.2
2017-Nov-28 12:29N 51°03' E 002°20'1 1.3
2017-Nov-28 11:59N 51°03' E 002°21'0 0.8
2017-Nov-28 11:29N 51°03' E 002°22'0 0.0
2017-Nov-28 10:59N 51°03' E 002°22'0 0.0
2017-Nov-28 10:29N 51°03' E 002°22'0 0.0
2017-Nov-28 09:59N 51°03' E 002°22'0 0.0
2017-Nov-28 08:44N 51°03' E 002°22'0 0.0
2017-Nov-28 08:14N 51°03' E 002°22'0 0.0
2017-Nov-28 07:59N 51°03' E 002°22'0 0.0
2017-Nov-28 07:26N 51°03' E 002°22'0 0.0
2017-Nov-28 07:00N 51°03' E 002°22'0 0.0
2017-Nov-28 06:21N 51°03' E 002°22'0 0.0
2017-Nov-28 06:00N 51°03' E 002°22'0 0.0
2017-Nov-28 05:30N 51°03' E 002°22'0 0.0
2017-Nov-28 04:21N 51°03' E 002°22'0 0.0
2017-Nov-28 03:12N 51°03' E 002°22'0 0.0
2017-Nov-28 02:57N 51°03' E 002°22'0 0.0
2017-Nov-28 02:30N 51°03' E 002°22'0 0.0
2017-Nov-28 02:00N 51°03' E 002°22'0 0.0
2017-Nov-28 01:27N 51°03' E 002°22'0 0.0
2017-Nov-28 01:00N 51°03' E 002°22'0 0.0
2017-Nov-28 00:30N 51°03' E 002°22'0 0.0
2017-Nov-28 00:00N 51°03' E 002°22'0 0.0
2017-Nov-27 23:27N 51°03' E 002°22'0 0.0
2017-Nov-27 22:48N 51°03' E 002°22'0 0.0
2017-Nov-27 22:27N 51°03' E 002°22'0 0.0
2017-Nov-27 21:57N 51°03' E 002°22'0 0.0
2017-Nov-27 21:27N 51°03' E 002°22'0 0.0
2017-Nov-27 20:57N 51°03' E 002°22'0 0.0
2017-Nov-27 20:30N 51°03' E 002°22'0 0.0
2017-Nov-27 20:00N 51°03' E 002°22'0 0.0
2017-Nov-27 19:15N 51°03' E 002°22'0 0.0
2017-Nov-27 18:57N 51°03' E 002°22'0 0.0
2017-Nov-27 18:24N 51°03' E 002°22'0 0.0
2017-Nov-27 18:00N 51°03' E 002°22'0 0.0
2017-Nov-27 17:21N 51°03' E 002°22'0 0.0
2017-Nov-27 17:00N 51°03' E 002°22'0 0.0
2017-Nov-27 16:30N 51°03' E 002°22'0 0.0
2017-Nov-27 15:57N 51°03' E 002°22'0 0.0
2017-Nov-27 15:30N 51°03' E 002°22'0 0.0
2017-Nov-27 14:57N 51°03' E 002°22'0 0.0
2017-Nov-27 14:21N 51°03' E 002°22'0 0.0
2017-Nov-27 13:57N 51°03' E 002°22'0 0.0
2017-Nov-27 13:21N 51°03' E 002°22'0 0.0
2017-Nov-27 12:57N 51°03' E 002°22'0 0.0
2017-Nov-27 12:27N 51°03' E 002°22'0 0.0
2017-Nov-27 11:57N 51°03' E 002°22'0 0.0
2017-Nov-27 11:27N 51°03' E 002°22'0 0.0
2017-Nov-27 10:54N 51°03' E 002°22'0 0.0
2017-Nov-27 10:27N 51°03' E 002°22'0 0.0
2017-Nov-27 10:00N 51°03' E 002°22'0 0.0
2017-Nov-27 09:30N 51°03' E 002°22'0 0.0
2017-Nov-27 08:48N 51°03' E 002°22'0 0.0
2017-Nov-27 07:39N 51°03' E 002°22'0 0.0
2017-Nov-27 07:30N 51°03' E 002°22'0 0.0
2017-Nov-27 06:57N 51°03' E 002°22'0 0.0
2017-Nov-27 06:30N 51°03' E 002°22'0 0.0
2017-Nov-27 06:00N 51°03' E 002°22'0 0.0
2017-Nov-27 05:27N 51°03' E 002°22'0 0.0
2017-Nov-27 04:57N 51°03' E 002°22'0 0.0
2017-Nov-27 04:30N 51°03' E 002°22'0 0.0
2017-Nov-27 03:57N 51°03' E 002°22'0 0.0
2017-Nov-27 03:30N 51°03' E 002°22'0 0.0
2017-Nov-27 02:57N 51°03' E 002°22'0 0.0
2017-Nov-27 02:30N 51°03' E 002°22'0 0.0
2017-Nov-27 02:00N 51°03' E 002°22'0 0.0
2017-Nov-27 01:27N 51°03' E 002°22'0 0.0
2017-Nov-27 01:00N 51°03' E 002°22'0 0.0
2017-Nov-27 00:27N 51°03' E 002°22'0 0.0
2017-Nov-27 00:00N 51°03' E 002°22'0 0.0
2017-Nov-26 23:27N 51°03' E 002°22'0 0.0
2017-Nov-26 23:00N 51°03' E 002°22'0 0.0
2017-Nov-26 22:30N 51°03' E 002°22'0 0.0
2017-Nov-26 22:00N 51°03' E 002°22'0 0.0
2017-Nov-26 21:27N 51°03' E 002°22'0 0.0
2017-Nov-26 21:00N 51°03' E 002°22'0 0.0
2017-Nov-26 20:30N 51°03' E 002°22'0 0.0
2017-Nov-26 20:00N 51°03' E 002°22'0 0.0
2017-Nov-26 19:09N 51°03' E 002°22'0 0.0
2017-Nov-26 18:57N 51°03' E 002°22'0 0.0
2017-Nov-26 18:27N 51°03' E 002°22'0 0.0
2017-Nov-26 18:00N 51°03' E 002°22'0 0.0
2017-Nov-26 17:19N 51°03' E 002°22'0 0.0
2017-Nov-26 17:00N 51°03' E 002°22'0 0.0
2017-Nov-26 16:21N 51°03' E 002°22'0 0.0
2017-Nov-26 15:48N 51°03' E 002°22'0 0.0
2017-Nov-26 15:30N 51°03' E 002°22'0 0.0
2017-Nov-26 15:00N 51°03' E 002°22'0 0.0
2017-Nov-26 13:45N 51°03' E 002°22'0 0.0
2017-Nov-26 13:06N 51°03' E 002°22'0 0.0
2017-Nov-26 13:00N 51°03' E 002°22'0 0.0
2017-Nov-26 12:30N 51°03' E 002°22'0 0.0
2017-Nov-26 11:57N 51°03' E 002°22'0 0.0
2017-Nov-26 11:27N 51°03' E 002°22'0 0.0
2017-Nov-26 11:00N 51°03' E 002°22'0 0.0
2017-Nov-26 10:27N 51°03' E 002°22'0 0.0
2017-Nov-26 09:57N 51°03' E 002°22'0 0.0
2017-Nov-26 09:30N 51°03' E 002°22'0 0.0
2017-Nov-26 08:57N 51°03' E 002°22'0 0.0
2017-Nov-26 08:30N 51°03' E 002°22'0 0.0
2017-Nov-26 07:57N 51°03' E 002°22'0 0.0
2017-Nov-26 07:30N 51°03' E 002°22'0 0.0
2017-Nov-26 06:36N 51°03' E 002°22'0 0.0
2017-Nov-26 06:30N 51°03' E 002°22'0 0.0
2017-Nov-26 05:15N 51°03' E 002°22'0 0.0
2017-Nov-26 05:00N 51°03' E 002°22'0 0.0
2017-Nov-26 04:27N 51°03' E 002°22'0 0.0
2017-Nov-26 03:57N 51°03' E 002°22'0 0.0
2017-Nov-26 03:27N 51°03' E 002°22'0 0.0
2017-Nov-26 03:00N 51°03' E 002°22'0 0.0
2017-Nov-26 02:15N 51°03' E 002°22'0 0.0
2017-Nov-26 02:00N 51°03' E 002°22'0 0.0
2017-Nov-26 01:21N 51°03' E 002°22'0 0.0
2017-Nov-26 01:00N 51°03' E 002°22'0 0.0
2017-Nov-26 00:24N 51°03' E 002°22'0 0.0
2017-Nov-25 23:57N 51°03' E 002°22'0 0.0
2017-Nov-25 23:30N 51°03' E 002°22'0 0.0
2017-Nov-25 23:00N 51°03' E 002°22'0 0.0
2017-Nov-25 22:27N 51°03' E 002°22'0 0.0
2017-Nov-25 22:00N 51°03' E 002°22'0 0.0
2017-Nov-25 21:30N 51°03' E 002°22'0 0.0
2017-Nov-25 20:57N 51°03' E 002°22'0 0.0
2017-Nov-25 20:12N 51°03' E 002°22'0 0.0
2017-Nov-25 19:57N 51°03' E 002°22'0 0.0
2017-Nov-25 19:30N 51°03' E 002°22'0 0.0
2017-Nov-25 19:00N 51°03' E 002°22'0 0.0
2017-Nov-25 18:27N 51°03' E 002°22'0 0.0
2017-Nov-25 17:54N 51°03' E 002°22'0 0.0
2017-Nov-25 17:30N 51°03' E 002°22'0 0.0
2017-Nov-25 16:09N 51°03' E 002°22'0 0.0
2017-Nov-25 15:57N 51°03' E 002°22'0 0.0
2017-Nov-25 15:27N 51°03' E 002°22'0 0.0
2017-Nov-25 15:00N 51°03' E 002°22'0 0.0
2017-Nov-25 14:09N 51°03' E 002°22'0 0.0
2017-Nov-25 14:00N 51°03' E 002°22'0 0.0
2017-Nov-25 13:30N 51°03' E 002°22'0 0.0
2017-Nov-25 12:57N 51°03' E 002°22'0 0.0
2017-Nov-25 12:27N 51°03' E 002°22'0 0.0
2017-Nov-25 11:45N 51°03' E 002°22'0 0.0
2017-Nov-25 11:30N 51°03' E 002°22'0 0.0
2017-Nov-25 11:00N 51°03' E 002°22'0 0.0
2017-Nov-25 10:30N 51°03' E 002°22'0 0.0
2017-Nov-25 08:43N 51°03' E 002°22'0 0.0
2017-Nov-25 08:28N 51°03' E 002°22'0 0.0
2017-Nov-25 07:49N 51°03' E 002°22'0 0.0
2017-Nov-25 07:28N 51°03' E 002°22'0 0.0
2017-Nov-25 06:58N 51°03' E 002°22'0 0.0
2017-Nov-25 06:19N 51°03' E 002°22'0 0.0
2017-Nov-25 05:58N 51°03' E 002°22'0 0.0
2017-Nov-25 05:25N 51°03' E 002°22'0 0.0
2017-Nov-25 04:58N 51°03' E 002°22'0 0.0
2017-Nov-25 04:16N 51°03' E 002°22'0 0.0
2017-Nov-25 03:58N 51°03' E 002°22'0 0.0
2017-Nov-25 03:16N 51°03' E 002°22'0 0.0
2017-Nov-25 02:55N 51°03' E 002°22'0 0.0
2017-Nov-25 02:19N 51°03' E 002°22'0 0.0
2017-Nov-25 01:55N 51°03' E 002°22'0 0.0
2017-Nov-25 01:25N 51°03' E 002°22'0 0.0
2017-Nov-25 00:46N 51°03' E 002°22'0 0.0
2017-Nov-25 00:19N 51°03' E 002°22'0 0.0
2017-Nov-24 23:58N 51°03' E 002°22'0 0.0
2017-Nov-24 23:25N 51°03' E 002°22'0 0.0
2017-Nov-24 22:55N 51°03' E 002°22'0 0.0
2017-Nov-24 22:28N 51°03' E 002°22'0 0.0
2017-Nov-24 21:58N 51°03' E 002°22'0 0.0
2017-Nov-24 21:28N 51°03' E 002°22'0 0.0
2017-Nov-24 20:49N 51°03' E 002°22'0 0.0
2017-Nov-24 20:28N 51°03' E 002°22'0 0.0
2017-Nov-24 19:52N 51°03' E 002°22'0 0.0
2017-Nov-24 19:19N 51°03' E 002°22'0 0.0
2017-Nov-24 18:58N 51°03' E 002°22'0 0.0
2017-Nov-24 18:28N 51°03' E 002°22'0 0.0
2017-Nov-24 17:55N 51°03' E 002°22'0 0.0
2017-Nov-24 17:25N 51°03' E 002°22'0 0.0
2017-Nov-24 16:58N 51°03' E 002°22'0 0.0
2017-Nov-24 16:07N 51°03' E 002°22'0 0.0
2017-Nov-24 15:40N 51°03' E 002°22'0 0.0
2017-Nov-24 14:52N 51°03' E 002°22'0 0.0
2017-Nov-24 14:28N 51°03' E 002°22'0 0.0
2017-Nov-24 13:55N 51°03' E 002°22'0 0.0
2017-Nov-24 13:25N 51°03' E 002°22'0 0.0
2017-Nov-24 12:55N 51°03' E 002°22'0 0.0
2017-Nov-24 12:28N 51°03' E 002°22'0 0.0
2017-Nov-24 11:55N 51°03' E 002°22'0 0.0
2017-Nov-24 11:28N 51°03' E 002°22'0 0.0
2017-Nov-24 10:58N 51°03' E 002°22'  
Track history (hours):
 
Tides and Currents Weather Stations Pressure Air Temp Water Temp Dewpoint Dewpoint Depression Visibility Wind Speed Wind Dir Waves Ship Positions

MOL Presence

Last reported at 2017-Dec-04 10:30 UTC. Time now 2017-Dec-15 10:25 UTC.
Position N 38°18' W 009°58'.
Warning: this ship's position is 10 days out of date.

Length 293 m; draft 12.3 m.

Type: Ship. MMSI: 564803000.

Date/timePositionNaut miles runAvg speedWind from/ knotsBaromVisibWave heightAir tempDewpointWater temp
2017-Dec-04 10:30N 38°18' W 009°58'816.8
2017-Dec-04 10:00N 38°26' W 010°01'816.9
2017-Dec-04 09:31N 38°34' W 010°04'816.6
2017-Dec-04 09:01N 38°43' W 010°06'917.2
2017-Dec-04 08:31N 38°51' W 010°07'917.0
2017-Dec-04 08:01N 38°60' W 010°09'817.0
2017-Dec-04 07:31N 39°08' W 010°07'917.5
2017-Dec-04 07:00N 39°17' W 010°07'917.1
2017-Dec-04 06:31N 39°25' W 010°06'47318.9
2017-Dec-03 05:28N 47°02' W 007°18'1522.0
2017-Dec-03 04:48N 47°15' W 007°07'722.2
2017-Dec-03 04:28N 47°22' W 007°02'1221.8
2017-Dec-03 03:56N 47°32' W 006°54'3221.2
2017-Dec-03 02:25N 47°60' W 006°31'8920.6
2017-Dec-02 22:07N 49°11' W 005°12'519.3
2017-Dec-02 21:51N 49°15' W 005°06'4822.9
2017-Dec-02 19:46N 49°46' W 004°10'1122.1
2017-Dec-02 19:16N 49°53' W 003°57'521.5
2017-Dec-02 19:00N 49°57' W 003°50'1020.4
2017-Dec-02 18:30N 50°03' W 003°38'918.8
2017-Dec-02 18:01N 50°09' W 003°27'918.4
2017-Dec-02 17:31N 50°18' W 003°25'713.2
2017-Dec-02 17:01N 50°25' W 003°26'5 9.3
2017-Dec-02 16:31N 50°26' W 003°19'917.7
2017-Dec-02 16:01N 50°25' W 003°05'1019.6
2017-Dec-02 15:31N 50°26' W 002°49'1220.5
2017-Dec-02 14:57N 50°26' W 002°31'921.1
2017-Dec-02 14:30N 50°26' W 002°17'1122.0
2017-Dec-02 14:01N 50°26' W 001°60'1223.4
2017-Dec-02 13:31N 50°26' W 001°41'1223.9
2017-Dec-02 13:00N 50°25' W 001°23'1223.7
2017-Dec-02 12:30N 50°28' W 001°04'1223.3
2017-Dec-02 11:58N 50°29' W 000°44'1123.0
2017-Dec-02 11:30N 50°29' W 000°28'1122.4
2017-Dec-02 11:00N 50°31' W 000°11'1122.8
2017-Dec-02 10:30N 50°34' E 000°07'1122.3
2017-Dec-02 10:00N 50°37' E 000°23'1121.5
2017-Dec-02 09:30N 50°40' E 000°40'1121.5
2017-Dec-02 09:00N 50°46' E 000°54'1121.4
2017-Dec-02 08:30N 50°51' E 001°09'1122.0
2017-Dec-02 08:00N 50°58' E 001°23'1223.8
2017-Dec-02 07:31N 51°06' E 001°36'1224.7
2017-Dec-02 07:01N 51°16' E 001°47'1224.5
2017-Dec-02 06:31N 51°26' E 001°59'1223.9
2017-Dec-02 06:00N 51°35' E 002°12'1223.9
2017-Dec-02 05:30N 51°44' E 002°25'3421.8
2017-Dec-02 03:56N 52°04' E 003°11'922.2
2017-Dec-02 03:30N 52°04' E 003°26'1020.9
2017-Dec-02 03:01N 52°03' E 003°43'713.2
2017-Dec-02 02:30N 52°02' E 003°53'510.0
2017-Dec-02 02:01N 52°00' E 004°01'4 7.2
2017-Dec-02 01:30N 51°58' E 004°05'1 2.0
2017-Dec-02 00:59N 51°58' E 004°03'0 0.0
2017-Dec-02 00:29N 51°58' E 004°03'0 0.0
2017-Dec-02 00:00N 51°58' E 004°03'0 0.0
2017-Dec-01 23:30N 51°58' E 004°03'0 0.0
2017-Dec-01 23:00N 51°58' E 004°03'0 0.0
2017-Dec-01 22:30N 51°58' E 004°03'0 0.0
2017-Dec-01 22:00N 51°58' E 004°03'0 0.0
2017-Dec-01 21:30N 51°58' E 004°03'0 0.0
2017-Dec-01 21:00N 51°58' E 004°03'0 0.0
2017-Dec-01 20:30N 51°58' E 004°03'0 0.0
2017-Dec-01 20:00N 51°58' E 004°03'0 0.0
2017-Dec-01 19:30N 51°58' E 004°03'0 0.0
2017-Dec-01 19:00N 51°58' E 004°03'0 0.0
2017-Dec-01 18:30N 51°58' E 004°03'0 0.0
2017-Dec-01 18:00N 51°58' E 004°03'0 0.0
2017-Dec-01 17:30N 51°58' E 004°03'0 0.0
2017-Dec-01 17:00N 51°58' E 004°03'0 0.0
2017-Dec-01 16:30N 51°58' E 004°03'0 0.0
2017-Dec-01 16:00N 51°58' E 004°03'0 0.0
2017-Dec-01 15:30N 51°58' E 004°03'0 0.0
2017-Dec-01 15:00N 51°58' E 004°03'0 0.0
2017-Dec-01 14:30N 51°58' E 004°03'0 0.0
2017-Dec-01 14:00N 51°58' E 004°03'0 0.0
2017-Dec-01 13:30N 51°58' E 004°03'0 0.0
2017-Dec-01 13:00N 51°58' E 004°03'0 0.0
2017-Dec-01 12:30N 51°58' E 004°03'0 0.0
2017-Dec-01 12:00N 51°58' E 004°03'0 0.0
2017-Dec-01 11:30N 51°58' E 004°03'0 0.0
2017-Dec-01 11:00N 51°58' E 004°03'0 0.0
2017-Dec-01 10:27N 51°58' E 004°03'0 0.0
2017-Dec-01 10:00N 51°58' E 004°03'0 0.0
2017-Dec-01 09:30N 51°58' E 004°03'0 0.0
2017-Dec-01 09:00N 51°58' E 004°03'0 0.0
2017-Dec-01 08:30N 51°58' E 004°03'0 0.0
2017-Dec-01 08:00N 51°58' E 004°03'0 0.0
2017-Dec-01 07:30N 51°58' E 004°03'0 0.0
2017-Dec-01 07:00N 51°58' E 004°03'0 0.0
2017-Dec-01 06:30N 51°58' E 004°03'0 0.0
2017-Dec-01 06:00N 51°58' E 004°03'0 0.0
2017-Dec-01 05:30N 51°58' E 004°03'0 0.0
2017-Dec-01 05:00N 51°58' E 004°03'0 0.0
2017-Dec-01 04:30N 51°58' E 004°03'0 0.0
2017-Dec-01 04:00N 51°58' E 004°03'0 0.0
2017-Dec-01 03:30N 51°58' E 004°03'0 0.0
2017-Dec-01 03:00N 51°58' E 004°03'0 0.0
2017-Dec-01 02:30N 51°58' E 004°03'0 0.0
2017-Dec-01 02:00N 51°58' E 004°03'0 0.0
2017-Dec-01 01:30N 51°58' E 004°03'0 0.0
2017-Dec-01 01:00N 51°58' E 004°03'0 0.0
2017-Dec-01 00:30N 51°58' E 004°03'0 0.0
2017-Dec-01 00:00N 51°58' E 004°03'0 0.0
2017-Nov-30 23:30N 51°58' E 004°03'0 0.0
2017-Nov-30 23:00N 51°58' E 004°03'0 0.0
2017-Nov-30 22:30N 51°58' E 004°03'0 0.0
2017-Nov-30 22:00N 51°58' E 004°03'0 0.0
2017-Nov-30 21:30N 51°58' E 004°03'0 0.0
2017-Nov-30 21:00N 51°58' E 004°03'0 0.0
2017-Nov-30 20:30N 51°58' E 004°03'0 0.0
2017-Nov-30 20:00N 51°58' E 004°03'0 0.0
2017-Nov-30 19:30N 51°58' E 004°03'0 0.0
2017-Nov-30 19:00N 51°58' E 004°03'0 0.0
2017-Nov-30 18:30N 51°58' E 004°03'0 0.0
2017-Nov-30 18:00N 51°58' E 004°03'0 0.0
2017-Nov-30 17:30N 51°58' E 004°03'0 0.1
2017-Nov-30 17:00N 51°58' E 004°03'0 0.1
2017-Nov-30 16:30N 51°58' E 004°03'0 0.0
2017-Nov-30 16:00N 51°58' E 004°03'0 0.0
2017-Nov-30 15:30N 51°58' E 004°03'0 0.0
2017-Nov-30 15:00N 51°58' E 004°03'0 0.0
2017-Nov-30 14:30N 51°58' E 004°03'0 0.0
2017-Nov-30 14:00N 51°58' E 004°03'0 0.0
2017-Nov-30 13:30N 51°58' E 004°03'0 0.0
2017-Nov-30 13:00N 51°58' E 004°03'0 0.0
2017-Nov-30 12:30N 51°58' E 004°03'0 0.0
2017-Nov-30 12:00N 51°58' E 004°03'0 0.0
2017-Nov-30 11:30N 51°58' E 004°03'0 0.0
2017-Nov-30 11:00N 51°58' E 004°03'0 0.0
2017-Nov-30 10:30N 51°58' E 004°03'0 0.0
2017-Nov-30 10:00N 51°58' E 004°03'0 0.0
2017-Nov-30 09:30N 51°58' E 004°03'0 0.0
2017-Nov-30 09:00N 51°58' E 004°03'0 0.0
2017-Nov-30 08:30N 51°58' E 004°03'0 0.0
2017-Nov-30 08:00N 51°58' E 004°03'0 0.0
2017-Nov-30 07:30N 51°58' E 004°03'0 0.0
2017-Nov-30 07:00N 51°58' E 004°03'0 0.0
2017-Nov-30 06:30N 51°58' E 004°03'0 0.0
2017-Nov-30 06:00N 51°58' E 004°03'0 0.0
2017-Nov-30 05:30N 51°58' E 004°03'0 0.0
2017-Nov-30 05:00N 51°58' E 004°03'0 0.0
2017-Nov-30 04:30N 51°58' E 004°03'0 0.0
2017-Nov-30 04:00N 51°58' E 004°03'0 0.0
2017-Nov-30 03:30N 51°58' E 004°03'0 0.0
2017-Nov-30 03:00N 51°58' E 004°03'0 0.0
2017-Nov-30 02:30N 51°58' E 004°03'0 0.0
2017-Nov-30 02:00N 51°58' E 004°03'0 0.0
2017-Nov-30 01:30N 51°58' E 004°03'0 0.0
2017-Nov-30 01:00N 51°58' E 004°03'0 0.0
2017-Nov-30 00:30N 51°58' E 004°03'0 0.0
2017-Nov-30 00:00N 51°58' E 004°03'0 0.0
2017-Nov-29 23:30N 51°58' E 004°03'0 0.0
2017-Nov-29 23:00N 51°58' E 004°03'0 0.0
2017-Nov-29 22:30N 51°58' E 004°03'0 0.1
2017-Nov-29 22:00N 51°58' E 004°03'1 1.4
2017-Nov-29 21:30N 51°58' E 004°04'2 3.7
2017-Nov-29 21:00N 51°59' E 004°03'5 9.1
2017-Nov-29 20:30N 52°00' E 003°55'4 8.4
2017-Nov-29 20:00N 51°60' E 003°49'510.1
2017-Nov-29 19:30N 51°58' E 003°41'713.0
2017-Nov-29 19:00N 51°56' E 003°31'2 2.6
2017-Nov-29 18:11N 51°54' E 003°29'0 0.0
2017-Nov-29 15:26N 51°54' E 003°29'0 0.1
2017-Nov-29 14:56N 51°54' E 003°29'0 0.0
2017-Nov-29 14:20N 51°54' E 003°29'0 0.1
2017-Nov-29 13:50N 51°54' E 003°29'0 0.0
2017-Nov-29 13:29N 51°54' E 003°29'0 0.0
2017-Nov-29 06:49N 51°54' E 003°29'0 0.1
2017-Nov-29 06:19N 51°54' E 003°29'0 0.0
2017-Nov-29 05:52N 51°54' E 003°29'0 0.0
2017-Nov-29 04:55N 51°54' E 003°29'0 0.0
2017-Nov-29 04:16N 51°54' E 003°29'0 0.0
2017-Nov-29 03:37N 51°54' E 003°29'0 0.0
2017-Nov-29 03:10N 51°54' E 003°29'0 0.1
2017-Nov-29 02:34N 51°54' E 003°29'0 0.2
2017-Nov-29 02:28N 51°54' E 003°29'0 0.0
2017-Nov-29 01:31N 51°54' E 003°29'0 0.0
2017-Nov-29 01:25N 51°54' E 003°29'0 0.1
2017-Nov-28 23:37N 51°54' E 003°29'0 0.3
2017-Nov-28 23:25N 51°54' E 003°29'0 0.7
2017-Nov-28 23:00N 51°55' E 003°29'2 4.1
2017-Nov-28 22:30N 51°55' E 003°26'510.0
2017-Nov-28 21:59N 51°54' E 003°17'711.4
2017-Nov-28 21:22N 51°52' E 003°06'2914.3
2017-Nov-28 19:20N 51°37' E 002°26'514.0
2017-Nov-28 19:01N 51°34' E 002°21'713.8
2017-Nov-28 18:31N 51°29' E 002°14'713.4
2017-Nov-28 18:01N 51°22' E 002°10'713.2
2017-Nov-28 17:31N 51°16' E 002°06'612.9
2017-Nov-28 17:01N 51°12' E 001°59'713.3
2017-Nov-28 16:31N 51°08' E 001°50'510.5
2017-Nov-28 16:01N 51°03' E 001°46'9 9.0
2017-Nov-28 15:01N 51°03' E 002°00'713.6
2017-Nov-28 14:30N 51°03' E 002°11'612.0
2017-Nov-28 14:00N 51°04' E 002°21'1 1.3
2017-Nov-28 13:29N 51°03' E 002°20'0 0.2
2017-Nov-28 12:50N 51°03' E 002°20'0 0.2
2017-Nov-28 12:29N 51°03' E 002°20'1 1.3
2017-Nov-28 11:59N 51°03' E 002°21'0 0.8
2017-Nov-28 11:29N 51°03' E 002°22'0 0.0
2017-Nov-28 10:59N 51°03' E 002°22'0 0.0
2017-Nov-28 10:29N 51°03' E 002°22'0 0.0
2017-Nov-28 09:59N 51°03' E 002°22'0 0.0
2017-Nov-28 08:44N 51°03' E 002°22'0 0.0
2017-Nov-28 08:14N 51°03' E 002°22'0 0.0
2017-Nov-28 07:59N 51°03' E 002°22'0 0.0
2017-Nov-28 07:26N 51°03' E 002°22'0 0.0
2017-Nov-28 07:00N 51°03' E 002°22'0 0.0
2017-Nov-28 06:21N 51°03' E 002°22'0 0.0
2017-Nov-28 06:00N 51°03' E 002°22'0 0.0
2017-Nov-28 05:30N 51°03' E 002°22'0 0.0
2017-Nov-28 04:21N 51°03' E 002°22'0 0.0
2017-Nov-28 03:12N 51°03' E 002°22'0 0.0
2017-Nov-28 02:57N 51°03' E 002°22'0 0.0
2017-Nov-28 02:30N 51°03' E 002°22'0 0.0
2017-Nov-28 02:00N 51°03' E 002°22'0 0.0
2017-Nov-28 01:27N 51°03' E 002°22'0 0.0
2017-Nov-28 01:00N 51°03' E 002°22'0 0.0
2017-Nov-28 00:30N 51°03' E 002°22'0 0.0
2017-Nov-28 00:00N 51°03' E 002°22'0 0.0
2017-Nov-27 23:27N 51°03' E 002°22'0 0.0
2017-Nov-27 22:48N 51°03' E 002°22'0 0.0
2017-Nov-27 22:27N 51°03' E 002°22'0 0.0
2017-Nov-27 21:57N 51°03' E 002°22'0 0.0
2017-Nov-27 21:27N 51°03' E 002°22'0 0.0
2017-Nov-27 20:57N 51°03' E 002°22'0 0.0
2017-Nov-27 20:30N 51°03' E 002°22'0 0.0
2017-Nov-27 20:00N 51°03' E 002°22'0 0.0
2017-Nov-27 19:15N 51°03' E 002°22'0 0.0
2017-Nov-27 18:57N 51°03' E 002°22'0 0.0
2017-Nov-27 18:24N 51°03' E 002°22'0 0.0
2017-Nov-27 18:00N 51°03' E 002°22'0 0.0
2017-Nov-27 17:21N 51°03' E 002°22'0 0.0
2017-Nov-27 17:00N 51°03' E 002°22'0 0.0
2017-Nov-27 16:30N 51°03' E 002°22'0 0.0
2017-Nov-27 15:57N 51°03' E 002°22'0 0.0
2017-Nov-27 15:30N 51°03' E 002°22'0 0.0
2017-Nov-27 14:57N 51°03' E 002°22'0 0.0
2017-Nov-27 14:21N 51°03' E 002°22'0 0.0
2017-Nov-27 13:57N 51°03' E 002°22'0 0.0
2017-Nov-27 13:21N 51°03' E 002°22'0 0.0
2017-Nov-27 12:57N 51°03' E 002°22'0 0.0
2017-Nov-27 12:27N 51°03' E 002°22'0 0.0
2017-Nov-27 11:57N 51°03' E 002°22'0 0.0
2017-Nov-27 11:27N 51°03' E 002°22'0 0.0
2017-Nov-27 10:54N 51°03' E 002°22'0 0.0
2017-Nov-27 10:27N 51°03' E 002°22'0 0.0
2017-Nov-27 10:00N 51°03' E 002°22'0 0.0
2017-Nov-27 09:30N 51°03' E 002°22'0 0.0
2017-Nov-27 08:48N 51°03' E 002°22'0 0.0
2017-Nov-27 07:39N 51°03' E 002°22'0 0.0
2017-Nov-27 07:30N 51°03' E 002°22'0 0.0
2017-Nov-27 06:57N 51°03' E 002°22'0 0.0
2017-Nov-27 06:30N 51°03' E 002°22'0 0.0
2017-Nov-27 06:00N 51°03' E 002°22'0 0.0
2017-Nov-27 05:27N 51°03' E 002°22'0 0.0
2017-Nov-27 04:57N 51°03' E 002°22'0 0.0
2017-Nov-27 04:30N 51°03' E 002°22'0 0.0
2017-Nov-27 03:57N 51°03' E 002°22'0 0.0
2017-Nov-27 03:30N 51°03' E 002°22'0 0.0
2017-Nov-27 02:57N 51°03' E 002°22'0 0.0
2017-Nov-27 02:30N 51°03' E 002°22'0 0.0
2017-Nov-27 02:00N 51°03' E 002°22'0 0.0
2017-Nov-27 01:27N 51°03' E 002°22'0 0.0
2017-Nov-27 01:00N 51°03' E 002°22'0 0.0
2017-Nov-27 00:27N 51°03' E 002°22'0 0.0
2017-Nov-27 00:00N 51°03' E 002°22'0 0.0
2017-Nov-26 23:27N 51°03' E 002°22'0 0.0
2017-Nov-26 23:00N 51°03' E 002°22'0 0.0
2017-Nov-26 22:30N 51°03' E 002°22'0 0.0
2017-Nov-26 22:00N 51°03' E 002°22'0 0.0
2017-Nov-26 21:27N 51°03' E 002°22'0 0.0
2017-Nov-26 21:00N 51°03' E 002°22'0 0.0
2017-Nov-26 20:30N 51°03' E 002°22'0 0.0
2017-Nov-26 20:00N 51°03' E 002°22'0 0.0
2017-Nov-26 19:09N 51°03' E 002°22'0 0.0
2017-Nov-26 18:57N 51°03' E 002°22'0 0.0
2017-Nov-26 18:27N 51°03' E 002°22'0 0.0
2017-Nov-26 18:00N 51°03' E 002°22'0 0.0
2017-Nov-26 17:19N 51°03' E 002°22'0 0.0
2017-Nov-26 17:00N 51°03' E 002°22'0 0.0
2017-Nov-26 16:21N 51°03' E 002°22'0 0.0
2017-Nov-26 15:48N 51°03' E 002°22'0 0.0
2017-Nov-26 15:30N 51°03' E 002°22'0 0.0
2017-Nov-26 15:00N 51°03' E 002°22'0 0.0
2017-Nov-26 13:45N 51°03' E 002°22'0 0.0
2017-Nov-26 13:06N 51°03' E 002°22'0 0.0
2017-Nov-26 13:00N 51°03' E 002°22'0 0.0
2017-Nov-26 12:30N 51°03' E 002°22'0 0.0
2017-Nov-26 11:57N 51°03' E 002°22'0 0.0
2017-Nov-26 11:27N 51°03' E 002°22'0 0.0
2017-Nov-26 11:00N 51°03' E 002°22'0 0.0
2017-Nov-26 10:27N 51°03' E 002°22'0 0.0
2017-Nov-26 09:57N 51°03' E 002°22'0 0.0
2017-Nov-26 09:30N 51°03' E 002°22'0 0.0
2017-Nov-26 08:57N 51°03' E 002°22'0 0.0
2017-Nov-26 08:30N 51°03' E 002°22'0 0.0
2017-Nov-26 07:57N 51°03' E 002°22'0 0.0
2017-Nov-26 07:30N 51°03' E 002°22'0 0.0
2017-Nov-26 06:36N 51°03' E 002°22'0 0.0
2017-Nov-26 06:30N 51°03' E 002°22'0 0.0
2017-Nov-26 05:15N 51°03' E 002°22'0 0.0
2017-Nov-26 05:00N 51°03' E 002°22'0 0.0
2017-Nov-26 04:27N 51°03' E 002°22'0 0.0
2017-Nov-26 03:57N 51°03' E 002°22'0 0.0
2017-Nov-26 03:27N 51°03' E 002°22'0 0.0
2017-Nov-26 03:00N 51°03' E 002°22'0 0.0
2017-Nov-26 02:15N 51°03' E 002°22'0 0.0
2017-Nov-26 02:00N 51°03' E 002°22'0 0.0
2017-Nov-26 01:21N 51°03' E 002°22'0 0.0
2017-Nov-26 01:00N 51°03' E 002°22'0 0.0
2017-Nov-26 00:24N 51°03' E 002°22'0 0.0
2017-Nov-25 23:57N 51°03' E 002°22'0 0.0
2017-Nov-25 23:30N 51°03' E 002°22'0 0.0
2017-Nov-25 23:00N 51°03' E 002°22'0 0.0
2017-Nov-25 22:27N 51°03' E 002°22'0 0.0
2017-Nov-25 22:00N 51°03' E 002°22'0 0.0
2017-Nov-25 21:30N 51°03' E 002°22'0 0.0
2017-Nov-25 20:57N 51°03' E 002°22'0 0.0
2017-Nov-25 20:12N 51°03' E 002°22'0 0.0
2017-Nov-25 19:57N 51°03' E 002°22'0 0.0
2017-Nov-25 19:30N 51°03' E 002°22'0 0.0
2017-Nov-25 19:00N 51°03' E 002°22'0 0.0
2017-Nov-25 18:27N 51°03' E 002°22'0 0.0
2017-Nov-25 17:54N 51°03' E 002°22'0 0.0
2017-Nov-25 17:30N 51°03' E 002°22'0 0.0
2017-Nov-25 16:09N 51°03' E 002°22'0 0.0
2017-Nov-25 15:57N 51°03' E 002°22'0 0.0
2017-Nov-25 15:27N 51°03' E 002°22'0 0.0
2017-Nov-25 15:00N 51°03' E 002°22'0 0.0
2017-Nov-25 14:09N 51°03' E 002°22'0 0.0
2017-Nov-25 14:00N 51°03' E 002°22'0 0.0
2017-Nov-25 13:30N 51°03' E 002°22'0 0.0
2017-Nov-25 12:57N 51°03' E 002°22'0 0.0
2017-Nov-25 12:27N 51°03' E 002°22'0 0.0
2017-Nov-25 11:45N 51°03' E 002°22'0 0.0
2017-Nov-25 11:30N 51°03' E 002°22'0 0.0
2017-Nov-25 11:00N 51°03' E 002°22'0 0.0
2017-Nov-25 10:30N 51°03' E 002°22'0 0.0
2017-Nov-25 08:43N 51°03' E 002°22'0 0.0
2017-Nov-25 08:28N 51°03' E 002°22'0 0.0
2017-Nov-25 07:49N 51°03' E 002°22'0 0.0
2017-Nov-25 07:28N 51°03' E 002°22'0 0.0
2017-Nov-25 06:58N 51°03' E 002°22'0 0.0
2017-Nov-25 06:19N 51°03' E 002°22'0 0.0
2017-Nov-25 05:58N 51°03' E 002°22'0 0.0
2017-Nov-25 05:25N 51°03' E 002°22'0 0.0
2017-Nov-25 04:58N 51°03' E 002°22'0 0.0
2017-Nov-25 04:16N 51°03' E 002°22'0 0.0
2017-Nov-25 03:58N 51°03' E 002°22'0 0.0
2017-Nov-25 03:16N 51°03' E 002°22'0 0.0
2017-Nov-25 02:55N 51°03' E 002°22'0 0.0
2017-Nov-25 02:19N 51°03' E 002°22'0 0.0
2017-Nov-25 01:55N 51°03' E 002°22'0 0.0
2017-Nov-25 01:25N 51°03' E 002°22'0 0.0
2017-Nov-25 00:46N 51°03' E 002°22'0 0.0
2017-Nov-25 00:19N 51°03' E 002°22'0 0.0
2017-Nov-24 23:58N 51°03' E 002°22'0 0.0
2017-Nov-24 23:25N 51°03' E 002°22'0 0.0
2017-Nov-24 22:55N 51°03' E 002°22'0 0.0
2017-Nov-24 22:28N 51°03' E 002°22'0 0.0
2017-Nov-24 21:58N 51°03' E 002°22'0 0.0
2017-Nov-24 21:28N 51°03' E 002°22'0 0.0
2017-Nov-24 20:49N 51°03' E 002°22'0 0.0
2017-Nov-24 20:28N 51°03' E 002°22'0 0.0
2017-Nov-24 19:52N 51°03' E 002°22'0 0.0
2017-Nov-24 19:19N 51°03' E 002°22'0 0.0
2017-Nov-24 18:58N 51°03' E 002°22'0 0.0
2017-Nov-24 18:28N 51°03' E 002°22'0 0.0
2017-Nov-24 17:55N 51°03' E 002°22'0 0.0
2017-Nov-24 17:25N 51°03' E 002°22'0 0.0
2017-Nov-24 16:58N 51°03' E 002°22'0 0.0
2017-Nov-24 16:07N 51°03' E 002°22'0 0.0
2017-Nov-24 15:40N 51°03' E 002°22'0 0.0
2017-Nov-24 14:52N 51°03' E 002°22'0 0.0
2017-Nov-24 14:28N 51°03' E 002°22'0 0.0
2017-Nov-24 13:55N 51°03' E 002°22'0 0.0
2017-Nov-24 13:25N 51°03' E 002°22'0 0.0
2017-Nov-24 12:55N 51°03' E 002°22'0 0.0
2017-Nov-24 12:28N 51°03' E 002°22'0 0.0
2017-Nov-24 11:55N 51°03' E 002°22'0 0.0
2017-Nov-24 11:28N 51°03' E 002°22'0 0.0
2017-Nov-24 10:58N 51°03' E 002°22'  

Dump ship's entire track history